WAT376 WSSS-RJNS
Flight info
| Callsign | WAT376 |
|---|---|
| Flight time | 5h 57m |
| Altitude | 36000 |
| Route | TOMAN5B TOMAN L625 AKMON/K0909F360 L625 ANOKI/N0491F360 L625 MEVIN/N0490F370 B462 MAGMA/N0483F390 B462 KAZIK Y59 AZAMA Y57 YULIA Y575 ALBAT A1 KEC Y12 AYANO V52 SHIMA Y12 KOHWA Y55 GAKKI Y551 ENSYU |
| Aircraft | B77L/H-SDE1E2E3FGHIJ2J3J4J5M1RWXY/LB1D1 |
Departure
| Time | 2026-04-14 09:24 |
|---|---|
| Airport | Singapore Changi Airport (WSSS) |
Arrival
| Time | 2026-04-14 15:22 |
|---|---|
| Airport | Mount Fuji Shizuoka Airport (RJNS) |
| Time | Latitude | Longitude | Altitude | Speed | Heading |
|---|---|---|---|---|---|
| 2026-04-14 08:59 | 1.37358 | 103.99249 | 33 ft | 0 kts | 113° |
| 2026-04-14 09:17 | 1.37359 | 103.99247 | 35 ft | 2 kts | 113° |
| 2026-04-14 09:17 | 1.37366 | 103.99232 | 34 ft | 2 kts | 114° |
| 2026-04-14 09:17 | 1.37372 | 103.99216 | 31 ft | 2 kts | 103° |
| 2026-04-14 09:18 | 1.37375 | 103.99200 | 31 ft | 2 kts | 95° |
| 2026-04-14 09:18 | 1.37375 | 103.99183 | 31 ft | 2 kts | 87° |
| 2026-04-14 09:18 | 1.37373 | 103.99167 | 31 ft | 2 kts | 75° |
| 2026-04-14 09:18 | 1.37367 | 103.99151 | 32 ft | 2 kts | 52° |
| 2026-04-14 09:19 | 1.37361 | 103.99144 | 32 ft | 1 kts | 26° |
| 2026-04-14 09:20 | 1.37421 | 103.99170 | 33 ft | 18 kts | 23° |
| 2026-04-14 09:20 | 1.37536 | 103.99219 | 35 ft | 18 kts | 21° |
| 2026-04-14 09:21 | 1.37640 | 103.99260 | 35 ft | 18 kts | 21° |
| 2026-04-14 09:21 | 1.37756 | 103.99309 | 35 ft | 18 kts | 24° |
| 2026-04-14 09:21 | 1.37871 | 103.99360 | 35 ft | 18 kts | 24° |
| 2026-04-14 09:21 | 1.37986 | 103.99410 | 33 ft | 18 kts | 24° |
| 2026-04-14 09:22 | 1.38073 | 103.99430 | 35 ft | 6 kts | 323° |
| 2026-04-14 09:22 | 1.38114 | 103.99363 | 35 ft | 22 kts | 299° |
| 2026-04-14 09:22 | 1.38155 | 103.99276 | 35 ft | 13 kts | 293° |
| 2026-04-14 09:22 | 1.38185 | 103.99208 | 35 ft | 9 kts | 293° |
| 2026-04-14 09:23 | 1.38205 | 103.99153 | 35 ft | 8 kts | 276° |
| 2026-04-14 09:23 | 1.38171 | 103.99123 | 35 ft | 7 kts | 197° |
| 2026-04-14 09:23 | 1.38156 | 103.99117 | 35 ft | 1 kts | 204° |
| 2026-04-14 09:23 | 1.37987 | 103.99050 | 33 ft | 62 kts | 201° |
| 2026-04-14 09:24 | 1.37347 | 103.98781 | 35 ft | 133 kts | 203° |
| 2026-04-14 09:24 | 1.36330 | 103.98343 | 39 ft | 186 kts | 202° |
| 2026-04-14 09:24 | 1.35061 | 103.97814 | 295 ft | 206 kts | 201° |
| 2026-04-14 09:24 | 1.33943 | 103.97338 | 748 ft | 207 kts | 203° |
| 2026-04-14 09:25 | 1.32692 | 103.96785 | 1754 ft | 189 kts | 202° |
| 2026-04-14 09:25 | 1.31488 | 103.96281 | 2500 ft | 185 kts | 202° |
| 2026-04-14 09:25 | 1.30221 | 103.95751 | 2760 ft | 211 kts | 202° |
| 2026-04-14 09:25 | 1.28779 | 103.95146 | 3020 ft | 238 kts | 202° |
| 2026-04-14 09:26 | 1.27163 | 103.94468 | 3398 ft | 261 kts | 202° |
| 2026-04-14 09:26 | 1.25445 | 103.93771 | 4081 ft | 268 kts | 198° |
| 2026-04-14 09:26 | 1.23827 | 103.93565 | 4575 ft | 273 kts | 170° |
| 2026-04-14 09:26 | 1.22140 | 103.94343 | 5302 ft | 275 kts | 138° |
| 2026-04-14 09:27 | 1.20792 | 103.95724 | 5760 ft | 279 kts | 134° |
| 2026-04-14 09:27 | 1.19406 | 103.97104 | 5820 ft | 283 kts | 135° |
| 2026-04-14 09:27 | 1.18029 | 103.98433 | 5875 ft | 279 kts | 136° |
| 2026-04-14 09:27 | 1.17012 | 103.99417 | 6040 ft | 279 kts | 135° |
| 2026-04-14 09:28 | 1.15616 | 104.00769 | 6679 ft | 278 kts | 136° |
| 2026-04-14 09:28 | 1.14308 | 104.02212 | 7338 ft | 281 kts | 122° |
| 2026-04-14 09:28 | 1.13497 | 104.04040 | 7984 ft | 284 kts | 110° |
| 2026-04-14 09:28 | 1.12773 | 104.05900 | 8657 ft | 290 kts | 114° |
| 2026-04-14 09:29 | 1.11977 | 104.07755 | 9452 ft | 291 kts | 114° |
| 2026-04-14 09:29 | 1.11167 | 104.09607 | 10105 ft | 298 kts | 115° |
| 2026-04-14 09:29 | 1.10318 | 104.11542 | 10556 ft | 315 kts | 114° |
| 2026-04-14 09:29 | 1.09401 | 104.13632 | 10728 ft | 341 kts | 114° |
| 2026-04-14 09:30 | 1.08416 | 104.15890 | 10919 ft | 365 kts | 113° |
| 2026-04-14 09:30 | 1.07767 | 104.18374 | 10967 ft | 381 kts | 94° |
| 2026-04-14 09:30 | 1.07908 | 104.21043 | 11026 ft | 384 kts | 85° |
| 2026-04-14 09:30 | 1.08130 | 104.23750 | 11672 ft | 390 kts | 87° |
| 2026-04-14 09:31 | 1.08259 | 104.26468 | 12605 ft | 392 kts | 88° |
| 2026-04-14 09:31 | 1.08358 | 104.29199 | 13481 ft | 396 kts | 89° |
| 2026-04-14 09:31 | 1.08450 | 104.31980 | 14192 ft | 402 kts | 89° |
| 2026-04-14 09:31 | 1.08544 | 104.34789 | 14894 ft | 407 kts | 89° |
| 2026-04-14 09:32 | 1.08641 | 104.37596 | 15601 ft | 411 kts | 89° |
| 2026-04-14 09:32 | 1.08742 | 104.40462 | 16308 ft | 415 kts | 89° |
| 2026-04-14 09:32 | 1.09318 | 104.46278 | 17647 ft | 426 kts | 79° |
| 2026-04-14 09:33 | 1.09943 | 104.49194 | 18267 ft | 430 kts | 78° |
| 2026-04-14 09:33 | 1.10564 | 104.52134 | 18842 ft | 434 kts | 79° |
| 2026-04-14 09:33 | 1.11182 | 104.55110 | 19429 ft | 437 kts | 79° |
| 2026-04-14 09:33 | 1.11798 | 104.58104 | 20023 ft | 440 kts | 79° |
| 2026-04-14 09:34 | 1.12412 | 104.61110 | 20599 ft | 444 kts | 79° |
| 2026-04-14 09:34 | 1.13031 | 104.64150 | 21153 ft | 447 kts | 79° |
| 2026-04-14 09:34 | 1.13647 | 104.67176 | 21692 ft | 451 kts | 79° |
| 2026-04-14 09:34 | 1.14279 | 104.70290 | 22248 ft | 454 kts | 79° |
| 2026-04-14 09:35 | 1.14908 | 104.73393 | 22785 ft | 458 kts | 79° |
| 2026-04-14 09:35 | 1.15545 | 104.76528 | 23291 ft | 461 kts | 79° |
| 2026-04-14 09:35 | 1.16186 | 104.79686 | 23761 ft | 464 kts | 78° |
| 2026-04-14 09:35 | 1.16830 | 104.82852 | 24203 ft | 466 kts | 78° |
| 2026-04-14 09:36 | 1.17477 | 104.86040 | 24672 ft | 468 kts | 78° |
| 2026-04-14 09:36 | 1.18118 | 104.89195 | 25122 ft | 470 kts | 78° |
| 2026-04-14 09:36 | 1.18777 | 104.92438 | 25558 ft | 472 kts | 78° |
| 2026-04-14 09:36 | 1.19431 | 104.95657 | 25956 ft | 475 kts | 78° |
| 2026-04-14 09:37 | 1.20083 | 104.98869 | 26349 ft | 478 kts | 78° |
| 2026-04-14 09:37 | 1.20748 | 105.02144 | 26740 ft | 480 kts | 78° |
| 2026-04-14 09:37 | 1.21413 | 105.05416 | 27121 ft | 483 kts | 78° |
| 2026-04-14 09:37 | 1.22083 | 105.08717 | 27497 ft | 486 kts | 78° |
| 2026-04-14 09:38 | 1.22759 | 105.12047 | 27872 ft | 488 kts | 78° |
| 2026-04-14 09:38 | 1.23435 | 105.15377 | 28239 ft | 491 kts | 78° |
| 2026-04-14 09:38 | 1.24116 | 105.18732 | 28587 ft | 493 kts | 78° |
| 2026-04-14 09:38 | 1.24801 | 105.22105 | 28922 ft | 496 kts | 78° |
| 2026-04-14 09:39 | 1.25488 | 105.25490 | 29239 ft | 498 kts | 78° |
| 2026-04-14 09:39 | 1.26181 | 105.28906 | 29551 ft | 500 kts | 78° |
| 2026-04-14 09:39 | 1.26874 | 105.32320 | 29851 ft | 502 kts | 78° |
| 2026-04-14 09:39 | 1.27568 | 105.35741 | 30163 ft | 503 kts | 78° |
| 2026-04-14 09:40 | 1.28273 | 105.39217 | 30520 ft | 502 kts | 78° |
| 2026-04-14 09:40 | 1.28958 | 105.42590 | 30882 ft | 501 kts | 78° |
| 2026-04-14 09:40 | 1.29655 | 105.46028 | 31242 ft | 501 kts | 78° |
| 2026-04-14 09:40 | 1.30348 | 105.49446 | 31627 ft | 501 kts | 78° |
| 2026-04-14 09:41 | 1.30808 | 105.51712 | 31873 ft | 500 kts | 78° |
| 2026-04-14 09:41 | 1.31501 | 105.55128 | 32243 ft | 500 kts | 78° |
| 2026-04-14 09:41 | 1.32190 | 105.58528 | 32639 ft | 499 kts | 78° |
| 2026-04-14 09:41 | 1.32882 | 105.61940 | 33026 ft | 498 kts | 78° |
| 2026-04-14 09:42 | 1.33563 | 105.65299 | 33432 ft | 498 kts | 78° |
| 2026-04-14 09:42 | 1.34259 | 105.68729 | 33830 ft | 497 kts | 78° |
| 2026-04-14 09:42 | 1.34936 | 105.72067 | 34185 ft | 496 kts | 78° |
| 2026-04-14 09:42 | 1.35781 | 105.75400 | 34446 ft | 492 kts | 68° |
| 2026-04-14 09:43 | 1.37488 | 105.78383 | 34539 ft | 496 kts | 50° |
| 2026-04-14 09:43 | 1.39978 | 105.80747 | 34770 ft | 498 kts | 36° |
| 2026-04-14 09:43 | 1.42982 | 105.82475 | 34825 ft | 495 kts | 26° |
| 2026-04-14 09:43 | 1.46110 | 105.83975 | 34957 ft | 496 kts | 26° |
| 2026-04-14 09:44 | 1.49199 | 105.85504 | 35243 ft | 496 kts | 27° |
| 2026-04-14 09:44 | 1.52289 | 105.87067 | 35628 ft | 494 kts | 27° |
| 2026-04-14 09:44 | 1.55328 | 105.88626 | 36022 ft | 491 kts | 27° |
| 2026-04-14 09:44 | 1.58333 | 105.90179 | 36386 ft | 489 kts | 27° |
| 2026-04-14 09:45 | 1.61349 | 105.91743 | 36730 ft | 488 kts | 27° |
| 2026-04-14 09:45 | 1.67405 | 105.94882 | 36834 ft | 490 kts | 27° |
| 2026-04-14 09:46 | 1.73472 | 105.98022 | 36840 ft | 489 kts | 27° |
| 2026-04-14 09:46 | 1.79483 | 106.01132 | 36849 ft | 488 kts | 27° |
| 2026-04-14 09:47 | 1.85512 | 106.04252 | 36849 ft | 487 kts | 27° |
| 2026-04-14 09:47 | 1.91535 | 106.07368 | 36849 ft | 487 kts | 27° |
| 2026-04-14 09:48 | 1.97567 | 106.10489 | 36846 ft | 487 kts | 27° |
| 2026-04-14 09:48 | 2.03585 | 106.13603 | 36847 ft | 487 kts | 27° |
| 2026-04-14 09:49 | 2.09617 | 106.16725 | 36846 ft | 487 kts | 27° |
| 2026-04-14 09:49 | 2.15592 | 106.19819 | 36848 ft | 487 kts | 27° |
| 2026-04-14 09:50 | 2.21618 | 106.22940 | 36844 ft | 487 kts | 27° |
| 2026-04-14 09:50 | 2.27606 | 106.26040 | 36844 ft | 487 kts | 27° |
| 2026-04-14 09:51 | 2.33641 | 106.29166 | 36845 ft | 487 kts | 27° |
| 2026-04-14 09:51 | 2.39616 | 106.32261 | 36844 ft | 486 kts | 27° |
| 2026-04-14 09:52 | 2.45635 | 106.35379 | 36843 ft | 486 kts | 27° |
| 2026-04-14 09:52 | 2.51651 | 106.38497 | 36843 ft | 486 kts | 27° |
| 2026-04-14 09:53 | 2.57630 | 106.41595 | 36844 ft | 486 kts | 27° |
| 2026-04-14 09:53 | 2.63651 | 106.44719 | 36845 ft | 486 kts | 27° |
| 2026-04-14 09:54 | 2.69649 | 106.47833 | 36847 ft | 486 kts | 27° |
| 2026-04-14 09:54 | 2.75679 | 106.50961 | 36848 ft | 485 kts | 27° |
| 2026-04-14 09:55 | 2.81648 | 106.54032 | 36849 ft | 485 kts | 27° |
| 2026-04-14 09:55 | 2.87654 | 106.57125 | 36848 ft | 486 kts | 27° |
| 2026-04-14 09:56 | 2.93659 | 106.60234 | 36850 ft | 486 kts | 28° |
| 2026-04-14 09:56 | 2.99654 | 106.63342 | 36849 ft | 486 kts | 28° |
| 2026-04-14 09:57 | 3.05675 | 106.66462 | 36849 ft | 486 kts | 27° |
| 2026-04-14 09:57 | 3.11652 | 106.69558 | 36850 ft | 486 kts | 27° |
| 2026-04-14 09:58 | 3.17664 | 106.72673 | 36851 ft | 486 kts | 27° |
| 2026-04-14 09:58 | 3.23676 | 106.75788 | 36850 ft | 486 kts | 27° |
| 2026-04-14 09:59 | 3.29687 | 106.78903 | 36847 ft | 486 kts | 27° |
| 2026-04-14 09:59 | 3.35710 | 106.82025 | 36848 ft | 486 kts | 27° |
| 2026-04-14 10:00 | 3.41671 | 106.85116 | 36851 ft | 486 kts | 27° |
| 2026-04-14 10:00 | 3.47692 | 106.88238 | 36848 ft | 486 kts | 27° |
| 2026-04-14 10:01 | 3.53712 | 106.91360 | 36849 ft | 486 kts | 27° |
| 2026-04-14 10:01 | 3.59472 | 106.94858 | 36852 ft | 486 kts | 35° |
| 2026-04-14 10:02 | 3.64956 | 106.98797 | 36854 ft | 487 kts | 35° |
| 2026-04-14 10:02 | 3.70489 | 107.02746 | 36851 ft | 487 kts | 35° |
| 2026-04-14 10:03 | 3.76033 | 107.06672 | 36851 ft | 488 kts | 34° |
| 2026-04-14 10:03 | 3.81600 | 107.10602 | 36854 ft | 488 kts | 34° |
| 2026-04-14 10:04 | 3.87165 | 107.14530 | 36849 ft | 488 kts | 34° |
| 2026-04-14 10:04 | 3.92727 | 107.18459 | 36851 ft | 488 kts | 34° |
| 2026-04-14 10:05 | 3.98254 | 107.22364 | 36855 ft | 488 kts | 34° |
| 2026-04-14 10:05 | 4.03806 | 107.26288 | 36855 ft | 489 kts | 34° |
| 2026-04-14 10:06 | 4.09398 | 107.30241 | 36859 ft | 489 kts | 34° |
| 2026-04-14 10:06 | 4.14932 | 107.34154 | 36854 ft | 489 kts | 34° |
| 2026-04-14 10:07 | 4.20489 | 107.38083 | 36856 ft | 488 kts | 34° |
| 2026-04-14 10:07 | 4.26049 | 107.42016 | 36853 ft | 488 kts | 34° |
| 2026-04-14 10:08 | 4.31579 | 107.45927 | 36855 ft | 488 kts | 34° |
| 2026-04-14 10:08 | 4.37175 | 107.49886 | 36855 ft | 488 kts | 34° |
| 2026-04-14 10:09 | 4.42717 | 107.53808 | 36859 ft | 487 kts | 34° |
| 2026-04-14 10:09 | 4.48226 | 107.57707 | 36854 ft | 487 kts | 34° |
| 2026-04-14 10:10 | 4.53764 | 107.61628 | 36856 ft | 487 kts | 34° |
| 2026-04-14 10:10 | 4.59320 | 107.65561 | 36861 ft | 488 kts | 34° |
| 2026-04-14 10:11 | 4.64870 | 107.69492 | 36858 ft | 488 kts | 34° |
| 2026-04-14 10:11 | 4.70401 | 107.73409 | 36856 ft | 488 kts | 34° |
| 2026-04-14 10:12 | 4.75960 | 107.77348 | 36857 ft | 488 kts | 34° |
| 2026-04-14 10:12 | 4.81474 | 107.81256 | 36857 ft | 489 kts | 34° |
| 2026-04-14 10:13 | 4.87038 | 107.85199 | 36857 ft | 489 kts | 34° |
| 2026-04-14 10:13 | 4.92600 | 107.89144 | 36857 ft | 489 kts | 35° |
| 2026-04-14 10:14 | 4.98149 | 107.93078 | 36857 ft | 489 kts | 35° |
| 2026-04-14 10:14 | 5.03726 | 107.97009 | 36858 ft | 489 kts | 34° |
| 2026-04-14 10:15 | 5.09313 | 108.00924 | 36856 ft | 489 kts | 34° |
| 2026-04-14 10:15 | 5.14890 | 108.04835 | 36857 ft | 489 kts | 34° |
| 2026-04-14 10:16 | 5.19534 | 108.08096 | 36858 ft | 490 kts | 34° |
| 2026-04-14 10:16 | 5.25115 | 108.12019 | 36859 ft | 489 kts | 34° |
| 2026-04-14 10:17 | 5.30719 | 108.15957 | 36856 ft | 489 kts | 34° |
| 2026-04-14 10:17 | 5.36307 | 108.19885 | 36858 ft | 489 kts | 34° |
| 2026-04-14 10:18 | 5.44645 | 108.25750 | 36859 ft | 490 kts | 34° |
| 2026-04-14 10:18 | 5.50230 | 108.29679 | 36857 ft | 490 kts | 34° |
| 2026-04-14 10:19 | 5.55823 | 108.33614 | 36857 ft | 490 kts | 34° |
| 2026-04-14 10:19 | 5.61392 | 108.37532 | 36857 ft | 490 kts | 34° |
| 2026-04-14 10:20 | 5.66982 | 108.41468 | 36861 ft | 490 kts | 34° |
| 2026-04-14 10:20 | 5.72559 | 108.45394 | 36861 ft | 490 kts | 34° |
| 2026-04-14 10:21 | 5.78146 | 108.49330 | 36860 ft | 489 kts | 34° |
| 2026-04-14 10:21 | 5.83685 | 108.53232 | 36861 ft | 488 kts | 34° |
| 2026-04-14 10:22 | 5.89244 | 108.57148 | 36863 ft | 488 kts | 34° |
| 2026-04-14 10:22 | 5.94809 | 108.61070 | 36862 ft | 488 kts | 34° |
| 2026-04-14 10:23 | 6.00370 | 108.64991 | 36861 ft | 487 kts | 34° |
| 2026-04-14 10:23 | 6.05889 | 108.68883 | 36862 ft | 487 kts | 34° |
| 2026-04-14 10:24 | 6.11447 | 108.72803 | 36860 ft | 487 kts | 34° |
| 2026-04-14 10:24 | 6.16994 | 108.76716 | 36861 ft | 487 kts | 34° |
| 2026-04-14 10:25 | 6.22540 | 108.80631 | 36861 ft | 487 kts | 34° |
| 2026-04-14 10:25 | 6.28104 | 108.84558 | 36862 ft | 487 kts | 35° |
| 2026-04-14 10:26 | 6.33670 | 108.88488 | 36862 ft | 487 kts | 35° |
| 2026-04-14 10:26 | 6.39182 | 108.92381 | 36861 ft | 487 kts | 35° |
| 2026-04-14 10:27 | 6.44739 | 108.96307 | 36858 ft | 487 kts | 35° |
| 2026-04-14 10:27 | 6.50280 | 109.00223 | 36860 ft | 487 kts | 35° |
| 2026-04-14 10:28 | 6.55829 | 109.04145 | 36858 ft | 486 kts | 35° |
| 2026-04-14 10:28 | 6.61383 | 109.08072 | 36857 ft | 486 kts | 35° |
| 2026-04-14 10:29 | 6.66880 | 109.11960 | 36860 ft | 486 kts | 35° |
| 2026-04-14 10:29 | 6.72414 | 109.15875 | 36863 ft | 486 kts | 35° |
| 2026-04-14 10:30 | 6.77935 | 109.19782 | 36859 ft | 486 kts | 35° |
| 2026-04-14 10:30 | 6.83490 | 109.23713 | 36862 ft | 486 kts | 35° |
| 2026-04-14 10:31 | 6.89027 | 109.27634 | 36866 ft | 486 kts | 35° |
| 2026-04-14 10:31 | 6.94534 | 109.31534 | 36863 ft | 487 kts | 35° |
| 2026-04-14 10:32 | 7.00077 | 109.35461 | 36863 ft | 487 kts | 35° |
| 2026-04-14 10:32 | 7.05619 | 109.39388 | 36861 ft | 487 kts | 35° |
| 2026-04-14 10:33 | 7.11179 | 109.43330 | 36862 ft | 487 kts | 35° |
| 2026-04-14 10:33 | 7.16693 | 109.47240 | 36866 ft | 487 kts | 34° |
| 2026-04-14 10:34 | 7.25033 | 109.53156 | 36872 ft | 490 kts | 34° |
| 2026-04-14 10:35 | 7.30603 | 109.57109 | 36868 ft | 491 kts | 34° |
| 2026-04-14 10:35 | 7.36216 | 109.61094 | 36867 ft | 490 kts | 34° |
| 2026-04-14 10:36 | 7.41749 | 109.65022 | 36867 ft | 489 kts | 34° |
| 2026-04-14 10:36 | 7.47326 | 109.68983 | 36869 ft | 490 kts | 34° |
| 2026-04-14 10:37 | 7.52902 | 109.72946 | 36868 ft | 490 kts | 34° |
| 2026-04-14 10:37 | 7.58472 | 109.76905 | 36866 ft | 489 kts | 34° |
| 2026-04-14 10:38 | 7.64049 | 109.80870 | 36867 ft | 489 kts | 34° |
| 2026-04-14 10:38 | 7.69608 | 109.84824 | 36870 ft | 489 kts | 34° |
| 2026-04-14 10:39 | 7.75159 | 109.88773 | 36867 ft | 489 kts | 34° |
| 2026-04-14 10:39 | 7.80723 | 109.92733 | 36870 ft | 489 kts | 34° |
| 2026-04-14 10:40 | 7.86299 | 109.96703 | 36868 ft | 489 kts | 34° |
| 2026-04-14 10:40 | 7.91833 | 110.00644 | 36869 ft | 489 kts | 34° |
| 2026-04-14 10:41 | 7.97410 | 110.04617 | 36866 ft | 489 kts | 34° |
| 2026-04-14 10:41 | 8.02939 | 110.08558 | 36872 ft | 489 kts | 34° |
| 2026-04-14 10:42 | 8.08512 | 110.12532 | 36868 ft | 489 kts | 34° |
| 2026-04-14 10:42 | 8.14065 | 110.16493 | 36869 ft | 489 kts | 34° |
| 2026-04-14 10:43 | 8.19626 | 110.20461 | 36870 ft | 489 kts | 34° |
| 2026-04-14 10:43 | 8.25188 | 110.24440 | 36867 ft | 489 kts | 34° |
| 2026-04-14 10:44 | 8.30734 | 110.28435 | 36869 ft | 489 kts | 35° |
| 2026-04-14 10:44 | 8.36255 | 110.32417 | 36868 ft | 489 kts | 35° |
| 2026-04-14 10:45 | 8.41804 | 110.36417 | 36873 ft | 489 kts | 35° |
| 2026-04-14 10:45 | 8.47348 | 110.40414 | 36871 ft | 489 kts | 35° |
| 2026-04-14 10:46 | 8.52867 | 110.44393 | 36871 ft | 489 kts | 35° |
| 2026-04-14 10:46 | 8.58407 | 110.48390 | 36871 ft | 488 kts | 35° |
| 2026-04-14 10:47 | 8.63938 | 110.52381 | 36870 ft | 488 kts | 35° |
| 2026-04-14 10:47 | 8.69447 | 110.56358 | 36873 ft | 488 kts | 35° |
| 2026-04-14 10:48 | 8.74981 | 110.60354 | 36870 ft | 488 kts | 35° |
| 2026-04-14 10:48 | 8.80434 | 110.64293 | 36871 ft | 488 kts | 35° |
| 2026-04-14 10:49 | 8.86087 | 110.68379 | 36874 ft | 488 kts | 35° |
| 2026-04-14 10:49 | 8.91590 | 110.72357 | 36873 ft | 488 kts | 35° |
| 2026-04-14 10:50 | 8.97131 | 110.76365 | 36872 ft | 489 kts | 35° |
| 2026-04-14 10:50 | 9.02674 | 110.80376 | 36871 ft | 490 kts | 35° |
| 2026-04-14 10:51 | 9.08188 | 110.84367 | 36875 ft | 489 kts | 35° |
| 2026-04-14 10:51 | 9.13721 | 110.88373 | 36875 ft | 489 kts | 36° |
| 2026-04-14 10:52 | 9.19247 | 110.92376 | 36873 ft | 488 kts | 36° |
| 2026-04-14 10:52 | 9.23861 | 110.95719 | 36880 ft | 488 kts | 36° |
| 2026-04-14 10:53 | 9.29393 | 110.99730 | 36879 ft | 489 kts | 36° |
| 2026-04-14 10:53 | 9.34932 | 111.03747 | 36877 ft | 489 kts | 36° |
| 2026-04-14 10:54 | 9.40459 | 111.07757 | 36874 ft | 488 kts | 36° |
| 2026-04-14 10:54 | 9.45968 | 111.11756 | 36878 ft | 487 kts | 36° |
| 2026-04-14 10:55 | 9.51471 | 111.15752 | 36876 ft | 487 kts | 36° |
| 2026-04-14 10:55 | 9.57003 | 111.19771 | 36875 ft | 487 kts | 36° |
| 2026-04-14 10:56 | 9.62493 | 111.23760 | 36875 ft | 489 kts | 36° |
| 2026-04-14 10:56 | 9.68037 | 111.27793 | 36872 ft | 490 kts | 36° |
| 2026-04-14 10:57 | 9.73570 | 111.31820 | 36872 ft | 489 kts | 36° |
| 2026-04-14 10:57 | 9.79098 | 111.35845 | 36874 ft | 488 kts | 36° |
| 2026-04-14 10:58 | 9.84609 | 111.39859 | 36874 ft | 487 kts | 36° |
| 2026-04-14 10:58 | 9.90129 | 111.43883 | 36877 ft | 488 kts | 36° |
| 2026-04-14 10:59 | 9.95657 | 111.47913 | 36880 ft | 489 kts | 36° |
| 2026-04-14 10:59 | 10.01152 | 111.51920 | 36881 ft | 489 kts | 36° |
| 2026-04-14 11:00 | 10.06684 | 111.55957 | 36877 ft | 488 kts | 36° |
| 2026-04-14 11:00 | 10.12195 | 111.59980 | 36879 ft | 488 kts | 36° |
| 2026-04-14 11:01 | 10.17726 | 111.64019 | 36877 ft | 488 kts | 36° |
| 2026-04-14 11:01 | 10.23213 | 111.68028 | 36880 ft | 489 kts | 36° |
| 2026-04-14 11:02 | 10.28744 | 111.72071 | 36879 ft | 489 kts | 36° |
| 2026-04-14 11:02 | 10.34283 | 111.76122 | 36884 ft | 489 kts | 36° |
| 2026-04-14 11:03 | 10.39814 | 111.80168 | 36846 ft | 489 kts | 36° |
| 2026-04-14 11:03 | 10.45311 | 111.84191 | 36878 ft | 490 kts | 37° |
| 2026-04-14 11:04 | 10.50861 | 111.88256 | 36884 ft | 492 kts | 37° |
| 2026-04-14 11:04 | 10.56402 | 111.92315 | 36887 ft | 491 kts | 36° |
| 2026-04-14 11:05 | 10.61933 | 111.96369 | 36881 ft | 489 kts | 36° |
| 2026-04-14 11:05 | 10.67467 | 112.00426 | 36886 ft | 490 kts | 36° |
| 2026-04-14 11:06 | 10.72976 | 112.04468 | 36887 ft | 491 kts | 36° |
| 2026-04-14 11:06 | 10.78520 | 112.08537 | 36881 ft | 491 kts | 36° |
| 2026-04-14 11:07 | 10.84053 | 112.12600 | 36885 ft | 491 kts | 36° |
| 2026-04-14 11:07 | 10.89602 | 112.16677 | 36882 ft | 491 kts | 36° |
| 2026-04-14 11:08 | 10.95149 | 112.20754 | 36886 ft | 491 kts | 36° |
| 2026-04-14 11:08 | 11.00707 | 112.24814 | 36885 ft | 492 kts | 36° |
| 2026-04-14 11:09 | 11.06275 | 112.28870 | 36885 ft | 492 kts | 36° |
| 2026-04-14 11:09 | 11.11839 | 112.32929 | 36886 ft | 491 kts | 36° |
| 2026-04-14 11:10 | 11.20157 | 112.39007 | 36885 ft | 491 kts | 36° |
| 2026-04-14 11:10 | 11.25721 | 112.43075 | 36885 ft | 492 kts | 36° |
| 2026-04-14 11:11 | 11.31278 | 112.47139 | 36886 ft | 492 kts | 36° |
| 2026-04-14 11:11 | 11.36843 | 112.51212 | 36883 ft | 492 kts | 36° |
| 2026-04-14 11:12 | 11.42427 | 112.55302 | 36886 ft | 492 kts | 36° |
| 2026-04-14 11:12 | 11.47950 | 112.59347 | 36886 ft | 492 kts | 36° |
| 2026-04-14 11:13 | 11.53501 | 112.63432 | 36887 ft | 492 kts | 36° |
| 2026-04-14 11:13 | 11.59043 | 112.67520 | 36886 ft | 491 kts | 37° |
| 2026-04-14 11:14 | 11.64566 | 112.71596 | 36888 ft | 491 kts | 36° |
| 2026-04-14 11:14 | 11.70142 | 112.75712 | 36891 ft | 491 kts | 36° |
| 2026-04-14 11:15 | 11.75649 | 112.79777 | 36891 ft | 491 kts | 36° |
| 2026-04-14 11:15 | 11.81175 | 112.83860 | 36888 ft | 491 kts | 36° |
| 2026-04-14 11:16 | 11.86729 | 112.87965 | 36891 ft | 491 kts | 37° |
| 2026-04-14 11:16 | 11.92258 | 112.92053 | 36888 ft | 491 kts | 37° |
| 2026-04-14 11:17 | 11.97800 | 112.96154 | 36892 ft | 491 kts | 37° |
| 2026-04-14 11:17 | 12.03315 | 113.00236 | 36893 ft | 490 kts | 36° |
| 2026-04-14 11:18 | 12.08826 | 113.04318 | 36894 ft | 490 kts | 36° |
| 2026-04-14 11:18 | 12.14358 | 113.08417 | 36891 ft | 490 kts | 36° |
| 2026-04-14 11:19 | 12.19860 | 113.12497 | 36893 ft | 491 kts | 36° |
| 2026-04-14 11:19 | 12.25399 | 113.16606 | 36893 ft | 491 kts | 36° |
| 2026-04-14 11:20 | 12.30930 | 113.20712 | 36893 ft | 491 kts | 36° |
| 2026-04-14 11:20 | 12.36456 | 113.24817 | 36895 ft | 491 kts | 37° |
| 2026-04-14 11:21 | 12.42002 | 113.28930 | 36899 ft | 491 kts | 36° |
| 2026-04-14 11:21 | 12.47539 | 113.33033 | 36895 ft | 491 kts | 36° |
| 2026-04-14 11:22 | 12.53051 | 113.37121 | 36895 ft | 491 kts | 36° |
| 2026-04-14 11:22 | 12.58587 | 113.41232 | 36895 ft | 491 kts | 36° |
| 2026-04-14 11:23 | 12.64082 | 113.45314 | 36897 ft | 491 kts | 37° |
| 2026-04-14 11:23 | 12.69607 | 113.49421 | 36895 ft | 490 kts | 36° |
| 2026-04-14 11:24 | 12.75136 | 113.53533 | 36902 ft | 490 kts | 36° |
| 2026-04-14 11:24 | 12.80656 | 113.57641 | 36894 ft | 490 kts | 36° |
| 2026-04-14 11:25 | 12.86194 | 113.61765 | 36898 ft | 489 kts | 36° |
| 2026-04-14 11:25 | 12.91675 | 113.65849 | 36897 ft | 490 kts | 36° |
| 2026-04-14 11:26 | 12.97196 | 113.69964 | 36899 ft | 490 kts | 36° |
| 2026-04-14 11:26 | 13.01825 | 113.73416 | 36895 ft | 491 kts | 36° |
| 2026-04-14 11:27 | 13.07349 | 113.77538 | 36895 ft | 491 kts | 36° |
| 2026-04-14 11:27 | 13.12876 | 113.81664 | 36897 ft | 489 kts | 36° |
| 2026-04-14 11:28 | 13.18342 | 113.85747 | 36897 ft | 489 kts | 36° |
| 2026-04-14 11:28 | 13.23850 | 113.89864 | 36901 ft | 489 kts | 36° |
| 2026-04-14 11:29 | 13.29358 | 113.93984 | 36901 ft | 490 kts | 36° |
| 2026-04-14 11:29 | 13.34869 | 113.98107 | 36897 ft | 490 kts | 36° |
| 2026-04-14 11:30 | 13.40349 | 114.02211 | 36897 ft | 489 kts | 36° |
| 2026-04-14 11:30 | 13.45861 | 114.06341 | 36898 ft | 489 kts | 36° |
| 2026-04-14 11:31 | 13.51372 | 114.10471 | 36899 ft | 489 kts | 36° |
| 2026-04-14 11:31 | 13.56872 | 114.14597 | 36900 ft | 490 kts | 36° |
| 2026-04-14 11:32 | 13.62384 | 114.18733 | 36900 ft | 490 kts | 36° |
| 2026-04-14 11:32 | 13.67894 | 114.22871 | 36902 ft | 490 kts | 36° |
| 2026-04-14 11:33 | 13.73406 | 114.27013 | 36901 ft | 489 kts | 36° |
| 2026-04-14 11:34 | 13.81650 | 114.33213 | 36901 ft | 489 kts | 36° |
| 2026-04-14 11:34 | 13.87129 | 114.37336 | 36902 ft | 490 kts | 36° |
| 2026-04-14 11:35 | 13.92639 | 114.41486 | 36904 ft | 489 kts | 36° |
| 2026-04-14 11:35 | 13.98007 | 114.45745 | 36897 ft | 487 kts | 42° |
| 2026-04-14 11:36 | 14.02710 | 114.50776 | 36906 ft | 486 kts | 47° |
| 2026-04-14 11:36 | 14.07324 | 114.55878 | 36902 ft | 485 kts | 47° |
| 2026-04-14 11:37 | 14.11924 | 114.60920 | 36910 ft | 486 kts | 47° |
| 2026-04-14 11:37 | 14.16574 | 114.65992 | 36908 ft | 488 kts | 47° |
| 2026-04-14 11:38 | 14.21240 | 114.71080 | 36908 ft | 489 kts | 47° |
| 2026-04-14 11:38 | 14.25927 | 114.76196 | 36908 ft | 491 kts | 47° |
| 2026-04-14 11:39 | 14.30625 | 114.81328 | 36908 ft | 492 kts | 47° |
| 2026-04-14 11:39 | 14.35317 | 114.86457 | 36901 ft | 489 kts | 47° |
| 2026-04-14 11:40 | 14.39981 | 114.91559 | 36898 ft | 486 kts | 47° |
| 2026-04-14 11:40 | 14.44572 | 114.96584 | 36903 ft | 484 kts | 47° |
| 2026-04-14 11:41 | 14.49191 | 115.01643 | 36911 ft | 483 kts | 47° |
| 2026-04-14 11:41 | 14.53817 | 115.06715 | 36907 ft | 484 kts | 47° |
| 2026-04-14 11:42 | 14.58446 | 115.11791 | 36909 ft | 485 kts | 47° |
| 2026-04-14 11:42 | 14.63048 | 115.16842 | 36907 ft | 486 kts | 47° |
| 2026-04-14 11:43 | 14.67673 | 115.21921 | 36909 ft | 486 kts | 47° |
| 2026-04-14 11:43 | 14.72315 | 115.27023 | 36909 ft | 487 kts | 47° |
| 2026-04-14 11:44 | 14.76951 | 115.32120 | 36907 ft | 488 kts | 47° |
| 2026-04-14 11:44 | 14.81585 | 115.37220 | 36909 ft | 489 kts | 47° |
| 2026-04-14 11:45 | 14.86248 | 115.42354 | 36909 ft | 489 kts | 47° |
| 2026-04-14 11:45 | 14.90901 | 115.47481 | 36910 ft | 488 kts | 47° |
| 2026-04-14 11:46 | 14.95545 | 115.52602 | 36907 ft | 487 kts | 47° |
| 2026-04-14 11:46 | 15.00175 | 115.57711 | 36909 ft | 485 kts | 47° |
| 2026-04-14 11:47 | 15.04802 | 115.62819 | 36908 ft | 486 kts | 47° |
| 2026-04-14 11:47 | 15.09404 | 115.67903 | 36909 ft | 487 kts | 47° |
| 2026-04-14 11:48 | 15.14049 | 115.73040 | 36909 ft | 488 kts | 47° |
| 2026-04-14 11:48 | 15.18682 | 115.78166 | 36910 ft | 488 kts | 47° |
| 2026-04-14 11:49 | 15.23311 | 115.83291 | 36910 ft | 487 kts | 47° |
| 2026-04-14 11:49 | 15.27922 | 115.88399 | 36911 ft | 487 kts | 47° |
| 2026-04-14 11:50 | 15.32559 | 115.93540 | 36907 ft | 487 kts | 47° |
| 2026-04-14 11:50 | 15.37167 | 115.98653 | 36908 ft | 487 kts | 47° |
| 2026-04-14 11:51 | 15.44125 | 116.06379 | 36911 ft | 487 kts | 47° |
| 2026-04-14 11:51 | 15.48745 | 116.11513 | 36909 ft | 487 kts | 47° |
| 2026-04-14 11:52 | 15.53350 | 116.16636 | 36910 ft | 487 kts | 47° |
| 2026-04-14 11:52 | 15.57975 | 116.21783 | 36915 ft | 488 kts | 47° |
| 2026-04-14 11:53 | 15.62615 | 116.26951 | 36913 ft | 488 kts | 47° |
| 2026-04-14 11:53 | 15.67242 | 116.32108 | 36911 ft | 488 kts | 47° |
| 2026-04-14 11:54 | 15.71859 | 116.37257 | 36913 ft | 488 kts | 47° |
| 2026-04-14 11:54 | 15.76492 | 116.42428 | 36913 ft | 488 kts | 47° |
| 2026-04-14 11:55 | 15.81110 | 116.47587 | 36912 ft | 487 kts | 47° |
| 2026-04-14 11:55 | 15.85727 | 116.52748 | 36918 ft | 488 kts | 47° |
| 2026-04-14 11:56 | 15.90328 | 116.57894 | 36914 ft | 488 kts | 47° |
| 2026-04-14 11:56 | 15.94947 | 116.63066 | 36918 ft | 488 kts | 47° |
| 2026-04-14 11:57 | 15.99576 | 116.68250 | 36919 ft | 489 kts | 47° |
| 2026-04-14 11:57 | 16.04213 | 116.73449 | 36915 ft | 489 kts | 47° |
| 2026-04-14 11:58 | 16.08842 | 116.78642 | 36920 ft | 489 kts | 47° |
| 2026-04-14 11:58 | 16.13429 | 116.83791 | 36918 ft | 489 kts | 47° |
| 2026-04-14 11:59 | 16.18071 | 116.89007 | 36916 ft | 489 kts | 47° |
| 2026-04-14 11:59 | 16.22694 | 116.94205 | 36921 ft | 490 kts | 47° |
| 2026-04-14 12:00 | 16.27320 | 116.99411 | 36918 ft | 490 kts | 47° |
| 2026-04-14 12:00 | 16.31948 | 117.04622 | 36922 ft | 490 kts | 48° |
| 2026-04-14 12:01 | 16.36573 | 117.09834 | 36922 ft | 490 kts | 48° |
| 2026-04-14 12:01 | 16.41206 | 117.15060 | 36919 ft | 490 kts | 48° |
| 2026-04-14 12:02 | 16.45815 | 117.20263 | 36923 ft | 490 kts | 48° |
| 2026-04-14 12:02 | 16.50438 | 117.25483 | 36926 ft | 491 kts | 48° |
| 2026-04-14 12:03 | 16.54305 | 117.29854 | 36917 ft | 491 kts | 48° |
| 2026-04-14 12:03 | 16.58926 | 117.35082 | 36927 ft | 491 kts | 48° |
| 2026-04-14 12:04 | 16.63544 | 117.40311 | 36924 ft | 491 kts | 48° |
| 2026-04-14 12:04 | 16.68171 | 117.45554 | 36922 ft | 492 kts | 48° |
| 2026-04-14 12:05 | 16.72802 | 117.50806 | 36928 ft | 492 kts | 48° |
| 2026-04-14 12:05 | 16.77437 | 117.56066 | 36929 ft | 492 kts | 48° |
| 2026-04-14 12:06 | 16.82079 | 117.61339 | 36925 ft | 493 kts | 48° |
| 2026-04-14 12:06 | 16.86724 | 117.66619 | 36920 ft | 493 kts | 48° |
| 2026-04-14 12:07 | 16.91247 | 117.71764 | 36925 ft | 493 kts | 48° |
| 2026-04-14 12:07 | 16.96014 | 117.77192 | 36922 ft | 493 kts | 48° |
| 2026-04-14 12:08 | 17.00672 | 117.82500 | 36924 ft | 493 kts | 48° |
| 2026-04-14 12:08 | 17.05277 | 117.87750 | 36922 ft | 493 kts | 48° |
| 2026-04-14 12:09 | 17.09926 | 117.93055 | 36924 ft | 494 kts | 48° |
| 2026-04-14 12:09 | 17.14568 | 117.98357 | 36927 ft | 494 kts | 48° |
| 2026-04-14 12:10 | 17.19188 | 118.03638 | 36927 ft | 494 kts | 48° |
| 2026-04-14 12:10 | 17.23834 | 118.08953 | 36926 ft | 494 kts | 48° |
| 2026-04-14 12:11 | 17.28480 | 118.14273 | 36927 ft | 495 kts | 48° |
| 2026-04-14 12:11 | 17.33128 | 118.19598 | 36927 ft | 495 kts | 48° |
| 2026-04-14 12:12 | 17.37779 | 118.24931 | 36926 ft | 495 kts | 48° |
| 2026-04-14 12:12 | 17.42405 | 118.30240 | 36928 ft | 496 kts | 48° |
| 2026-04-14 12:13 | 17.47054 | 118.35579 | 36926 ft | 496 kts | 48° |
| 2026-04-14 12:13 | 17.51707 | 118.40928 | 36929 ft | 496 kts | 48° |
| 2026-04-14 12:14 | 17.56356 | 118.46277 | 36932 ft | 497 kts | 48° |
| 2026-04-14 12:14 | 17.61018 | 118.51645 | 36923 ft | 497 kts | 48° |
| 2026-04-14 12:15 | 17.65642 | 118.56974 | 36926 ft | 496 kts | 48° |
| 2026-04-14 12:15 | 17.70285 | 118.62329 | 36930 ft | 495 kts | 48° |
| 2026-04-14 12:16 | 17.74930 | 118.67690 | 36931 ft | 496 kts | 48° |
| 2026-04-14 12:16 | 17.79571 | 118.73052 | 36928 ft | 497 kts | 48° |
| 2026-04-14 12:17 | 17.84220 | 118.78429 | 36927 ft | 498 kts | 48° |
| 2026-04-14 12:17 | 17.88895 | 118.83838 | 36930 ft | 498 kts | 48° |
| 2026-04-14 12:18 | 17.93529 | 118.89207 | 36927 ft | 499 kts | 48° |
| 2026-04-14 12:18 | 17.98177 | 118.94594 | 36926 ft | 497 kts | 48° |
| 2026-04-14 12:19 | 18.02820 | 118.99977 | 36923 ft | 496 kts | 48° |
| 2026-04-14 12:19 | 18.07445 | 119.05339 | 36934 ft | 496 kts | 48° |
| 2026-04-14 12:20 | 18.12087 | 119.10727 | 36930 ft | 496 kts | 48° |
| 2026-04-14 12:20 | 18.16722 | 119.16113 | 36927 ft | 497 kts | 48° |
| 2026-04-14 12:21 | 18.21382 | 119.21533 | 36933 ft | 498 kts | 48° |
| 2026-04-14 12:21 | 18.26044 | 119.26960 | 36930 ft | 499 kts | 48° |
| 2026-04-14 12:22 | 18.30699 | 119.32383 | 36925 ft | 500 kts | 48° |
| 2026-04-14 12:22 | 18.35347 | 119.37803 | 36927 ft | 501 kts | 48° |
| 2026-04-14 12:23 | 18.40017 | 119.43253 | 36927 ft | 501 kts | 49° |
| 2026-04-14 12:23 | 18.44664 | 119.48681 | 36929 ft | 501 kts | 48° |
| 2026-04-14 12:24 | 18.49344 | 119.54154 | 36924 ft | 500 kts | 48° |
| 2026-04-14 12:24 | 18.53970 | 119.59568 | 36927 ft | 498 kts | 48° |
| 2026-04-14 12:25 | 18.58600 | 119.64990 | 36926 ft | 497 kts | 48° |
| 2026-04-14 12:25 | 18.63212 | 119.70396 | 36929 ft | 496 kts | 48° |
| 2026-04-14 12:26 | 18.67847 | 119.75832 | 36932 ft | 498 kts | 48° |
| 2026-04-14 12:26 | 18.72478 | 119.81269 | 36934 ft | 501 kts | 48° |
| 2026-04-14 12:27 | 18.77148 | 119.86759 | 36932 ft | 504 kts | 48° |
| 2026-04-14 12:27 | 18.81842 | 119.92282 | 36928 ft | 504 kts | 48° |
| 2026-04-14 12:28 | 18.86523 | 119.97794 | 36925 ft | 504 kts | 48° |
| 2026-04-14 12:28 | 18.91182 | 120.03285 | 36926 ft | 504 kts | 48° |
| 2026-04-14 12:29 | 18.95858 | 120.08802 | 36928 ft | 503 kts | 48° |
| 2026-04-14 12:29 | 19.00393 | 120.14157 | 36925 ft | 502 kts | 48° |
| 2026-04-14 12:30 | 19.05050 | 120.19660 | 36926 ft | 500 kts | 48° |
| 2026-04-14 12:30 | 19.09692 | 120.25151 | 36927 ft | 498 kts | 48° |
| 2026-04-14 12:31 | 19.14299 | 120.30606 | 36930 ft | 496 kts | 48° |
| 2026-04-14 12:31 | 19.18895 | 120.36053 | 36945 ft | 499 kts | 48° |
| 2026-04-14 12:32 | 19.23529 | 120.41550 | 36935 ft | 503 kts | 48° |
| 2026-04-14 12:32 | 19.28200 | 120.47095 | 36938 ft | 505 kts | 48° |
| 2026-04-14 12:33 | 19.32891 | 120.52670 | 36928 ft | 504 kts | 48° |
| 2026-04-14 12:33 | 19.37555 | 120.58220 | 36935 ft | 502 kts | 48° |
| 2026-04-14 12:34 | 19.42185 | 120.63732 | 36929 ft | 500 kts | 48° |
| 2026-04-14 12:34 | 19.46044 | 120.68331 | 36940 ft | 500 kts | 48° |
| 2026-04-14 12:35 | 19.50689 | 120.73874 | 36935 ft | 501 kts | 48° |
| 2026-04-14 12:35 | 19.55293 | 120.79375 | 36937 ft | 501 kts | 48° |
| 2026-04-14 12:36 | 19.59921 | 120.84910 | 36942 ft | 501 kts | 48° |
| 2026-04-14 12:36 | 19.64550 | 120.90451 | 36941 ft | 501 kts | 48° |
| 2026-04-14 12:37 | 19.69175 | 120.95992 | 36935 ft | 501 kts | 48° |
| 2026-04-14 12:37 | 19.73813 | 121.01555 | 36938 ft | 502 kts | 48° |
| 2026-04-14 12:38 | 19.80758 | 121.09893 | 36940 ft | 503 kts | 49° |
| 2026-04-14 12:39 | 19.85364 | 121.15430 | 36937 ft | 503 kts | 49° |
| 2026-04-14 12:39 | 19.90004 | 121.21014 | 36936 ft | 503 kts | 49° |
| 2026-04-14 12:40 | 19.94632 | 121.26587 | 36942 ft | 503 kts | 49° |
| 2026-04-14 12:40 | 19.99264 | 121.32172 | 36943 ft | 504 kts | 49° |
| 2026-04-14 12:41 | 20.03902 | 121.37769 | 36937 ft | 504 kts | 49° |
| 2026-04-14 12:41 | 20.08527 | 121.43356 | 36943 ft | 504 kts | 49° |
| 2026-04-14 12:42 | 20.13169 | 121.48968 | 36941 ft | 504 kts | 49° |
| 2026-04-14 12:42 | 20.17802 | 121.54575 | 36943 ft | 504 kts | 49° |
| 2026-04-14 12:43 | 20.22432 | 121.60185 | 36943 ft | 505 kts | 49° |
| 2026-04-14 12:43 | 20.27051 | 121.65786 | 36942 ft | 505 kts | 49° |
| 2026-04-14 12:44 | 20.31686 | 121.71412 | 36943 ft | 505 kts | 49° |
| 2026-04-14 12:44 | 20.36330 | 121.77056 | 36948 ft | 506 kts | 49° |
| 2026-04-14 12:45 | 20.43305 | 121.85541 | 36946 ft | 506 kts | 49° |
| 2026-04-14 12:45 | 20.47943 | 121.91190 | 36945 ft | 506 kts | 49° |
| 2026-04-14 12:46 | 20.52574 | 121.96837 | 36945 ft | 506 kts | 49° |
| 2026-04-14 12:46 | 20.57217 | 122.02504 | 36946 ft | 507 kts | 49° |
| 2026-04-14 12:47 | 20.61837 | 122.08149 | 36945 ft | 507 kts | 49° |
| 2026-04-14 12:47 | 20.66477 | 122.13823 | 36945 ft | 507 kts | 49° |
| 2026-04-14 12:48 | 20.71127 | 122.19517 | 36944 ft | 507 kts | 49° |
| 2026-04-14 12:48 | 20.75763 | 122.25197 | 36947 ft | 507 kts | 49° |
| 2026-04-14 12:49 | 20.80407 | 122.30895 | 36948 ft | 508 kts | 49° |
| 2026-04-14 12:49 | 20.85041 | 122.36586 | 36946 ft | 508 kts | 49° |
| 2026-04-14 12:50 | 20.92013 | 122.45160 | 36945 ft | 508 kts | 49° |
| 2026-04-14 12:51 | 20.96622 | 122.50835 | 36948 ft | 508 kts | 49° |
| 2026-04-14 12:51 | 21.01692 | 122.56090 | 36948 ft | 508 kts | 38° |
| 2026-04-14 12:52 | 21.07533 | 122.60345 | 36952 ft | 508 kts | 32° |
| 2026-04-14 12:52 | 21.13504 | 122.64415 | 36950 ft | 509 kts | 32° |
| 2026-04-14 12:53 | 21.19462 | 122.68524 | 36947 ft | 509 kts | 32° |
| 2026-04-14 12:53 | 21.25404 | 122.72659 | 36948 ft | 509 kts | 32° |
| 2026-04-14 12:54 | 21.31348 | 122.76808 | 36947 ft | 510 kts | 32° |
| 2026-04-14 12:54 | 21.37297 | 122.80964 | 36947 ft | 510 kts | 32° |
| 2026-04-14 12:55 | 21.43253 | 122.85126 | 36948 ft | 511 kts | 32° |
| 2026-04-14 12:55 | 21.49218 | 122.89297 | 36947 ft | 511 kts | 32° |
| 2026-04-14 12:56 | 21.55139 | 122.93442 | 36948 ft | 511 kts | 32° |
| 2026-04-14 12:56 | 21.61136 | 122.97645 | 36948 ft | 511 kts | 32° |
| 2026-04-14 12:57 | 21.67100 | 123.01828 | 36949 ft | 512 kts | 32° |
| 2026-04-14 12:57 | 21.73035 | 123.05996 | 36949 ft | 512 kts | 32° |
| 2026-04-14 12:58 | 21.78998 | 123.10187 | 36946 ft | 512 kts | 32° |
| 2026-04-14 12:58 | 21.84964 | 123.14385 | 36948 ft | 513 kts | 32° |
| 2026-04-14 12:59 | 21.90947 | 123.18598 | 36948 ft | 513 kts | 32° |
| 2026-04-14 12:59 | 21.96905 | 123.22799 | 37103 ft | 516 kts | 32° |
| 2026-04-14 12:59 | 21.99939 | 123.24939 | 37479 ft | 515 kts | 32° |
| 2026-04-14 13:00 | 22.02924 | 123.27047 | 37895 ft | 512 kts | 32° |
| 2026-04-14 13:00 | 22.05881 | 123.29136 | 38286 ft | 511 kts | 32° |
| 2026-04-14 13:00 | 22.08841 | 123.31228 | 38646 ft | 510 kts | 32° |
| 2026-04-14 13:00 | 22.11816 | 123.33330 | 38871 ft | 510 kts | 32° |
| 2026-04-14 13:01 | 22.14788 | 123.35433 | 38900 ft | 512 kts | 32° |
| 2026-04-14 13:01 | 22.20749 | 123.39653 | 38943 ft | 512 kts | 32° |
| 2026-04-14 13:02 | 22.26722 | 123.43885 | 38948 ft | 511 kts | 32° |
| 2026-04-14 13:02 | 22.32644 | 123.48087 | 38949 ft | 509 kts | 32° |
| 2026-04-14 13:03 | 22.38538 | 123.52272 | 38952 ft | 509 kts | 32° |
| 2026-04-14 13:03 | 22.44480 | 123.56496 | 38954 ft | 510 kts | 32° |
| 2026-04-14 13:04 | 22.50427 | 123.60728 | 38955 ft | 512 kts | 32° |
| 2026-04-14 13:04 | 22.56373 | 123.64964 | 38954 ft | 512 kts | 32° |
| 2026-04-14 13:05 | 22.62335 | 123.69216 | 38950 ft | 512 kts | 32° |
| 2026-04-14 13:05 | 22.68267 | 123.73451 | 38955 ft | 513 kts | 32° |
| 2026-04-14 13:06 | 22.74225 | 123.77710 | 38959 ft | 513 kts | 32° |
| 2026-04-14 13:06 | 22.80195 | 123.81981 | 38954 ft | 513 kts | 32° |
| 2026-04-14 13:07 | 22.86161 | 123.86259 | 38954 ft | 513 kts | 33° |
| 2026-04-14 13:07 | 22.92103 | 123.90529 | 38956 ft | 513 kts | 33° |
| 2026-04-14 13:08 | 22.98069 | 123.94821 | 38955 ft | 514 kts | 32° |
| 2026-04-14 13:08 | 23.04002 | 123.99120 | 38953 ft | 515 kts | 33° |
| 2026-04-14 13:09 | 23.09942 | 124.03511 | 38954 ft | 515 kts | 33° |
| 2026-04-14 13:09 | 23.15878 | 124.07906 | 38954 ft | 515 kts | 33° |
| 2026-04-14 13:10 | 23.21785 | 124.12272 | 38957 ft | 515 kts | 33° |
| 2026-04-14 13:10 | 23.27718 | 124.16658 | 38958 ft | 516 kts | 33° |
| 2026-04-14 13:11 | 23.32679 | 124.20363 | 38951 ft | 517 kts | 36° |
| 2026-04-14 13:11 | 23.38050 | 124.25547 | 38949 ft | 519 kts | 48° |
| 2026-04-14 13:12 | 23.42761 | 124.31475 | 38962 ft | 519 kts | 49° |
| 2026-04-14 13:12 | 23.47479 | 124.37441 | 38953 ft | 520 kts | 49° |
| 2026-04-14 13:13 | 23.52235 | 124.43400 | 38950 ft | 520 kts | 49° |
| 2026-04-14 13:13 | 23.56994 | 124.49337 | 38961 ft | 519 kts | 49° |
| 2026-04-14 13:14 | 23.61745 | 124.55266 | 38962 ft | 519 kts | 49° |
| 2026-04-14 13:14 | 23.66509 | 124.61222 | 38960 ft | 520 kts | 49° |
| 2026-04-14 13:15 | 23.71234 | 124.67137 | 38960 ft | 520 kts | 49° |
| 2026-04-14 13:15 | 23.75979 | 124.73087 | 38957 ft | 520 kts | 49° |
| 2026-04-14 13:16 | 23.80726 | 124.79046 | 38961 ft | 520 kts | 49° |
| 2026-04-14 13:16 | 23.85461 | 124.84996 | 38961 ft | 521 kts | 49° |
| 2026-04-14 13:17 | 23.90227 | 124.90994 | 38960 ft | 522 kts | 49° |
| 2026-04-14 13:17 | 23.94997 | 124.97003 | 38961 ft | 522 kts | 49° |
| 2026-04-14 13:18 | 23.99744 | 125.02990 | 38962 ft | 521 kts | 49° |
| 2026-04-14 13:18 | 24.04499 | 125.08996 | 38960 ft | 521 kts | 49° |
| 2026-04-14 13:19 | 24.09260 | 125.15016 | 38963 ft | 522 kts | 49° |
| 2026-04-14 13:19 | 24.13985 | 125.20998 | 38963 ft | 523 kts | 49° |
| 2026-04-14 13:20 | 24.18756 | 125.27046 | 38964 ft | 523 kts | 49° |
| 2026-04-14 13:20 | 24.23506 | 125.33075 | 38966 ft | 524 kts | 49° |
| 2026-04-14 13:21 | 24.28288 | 125.39151 | 38964 ft | 523 kts | 49° |
| 2026-04-14 13:21 | 24.33005 | 125.45153 | 38966 ft | 524 kts | 49° |
| 2026-04-14 13:22 | 24.37770 | 125.51224 | 38965 ft | 524 kts | 49° |
| 2026-04-14 13:22 | 24.42528 | 125.57294 | 38965 ft | 524 kts | 49° |
| 2026-04-14 13:23 | 24.47290 | 125.63375 | 38964 ft | 525 kts | 49° |
| 2026-04-14 13:23 | 24.52067 | 125.69484 | 38967 ft | 526 kts | 49° |
| 2026-04-14 13:24 | 24.56826 | 125.75578 | 38965 ft | 526 kts | 49° |
| 2026-04-14 13:24 | 24.63948 | 125.84713 | 38966 ft | 525 kts | 48° |
| 2026-04-14 13:25 | 24.68689 | 125.90803 | 38964 ft | 526 kts | 48° |
| 2026-04-14 13:26 | 24.78204 | 126.03048 | 38968 ft | 528 kts | 48° |
| 2026-04-14 13:26 | 24.82967 | 126.09189 | 38967 ft | 527 kts | 48° |
| 2026-04-14 13:27 | 24.87719 | 126.15326 | 38966 ft | 527 kts | 48° |
| 2026-04-14 13:27 | 24.92508 | 126.21517 | 38967 ft | 527 kts | 48° |
| 2026-04-14 13:28 | 24.97260 | 126.27669 | 38967 ft | 528 kts | 48° |
| 2026-04-14 13:28 | 25.02035 | 126.33858 | 38968 ft | 529 kts | 48° |
| 2026-04-14 13:29 | 25.06784 | 126.40023 | 38969 ft | 529 kts | 48° |
| 2026-04-14 13:29 | 25.11543 | 126.46208 | 38970 ft | 529 kts | 48° |
| 2026-04-14 13:30 | 25.16314 | 126.52417 | 38969 ft | 530 kts | 48° |
| 2026-04-14 13:30 | 25.21092 | 126.58642 | 38966 ft | 531 kts | 48° |
| 2026-04-14 13:31 | 25.25850 | 126.64851 | 38965 ft | 531 kts | 48° |
| 2026-04-14 13:31 | 25.30624 | 126.71089 | 38970 ft | 531 kts | 48° |
| 2026-04-14 13:32 | 25.35407 | 126.77348 | 38962 ft | 531 kts | 48° |
| 2026-04-14 13:32 | 25.40169 | 126.83586 | 38962 ft | 531 kts | 48° |
| 2026-04-14 13:33 | 25.44912 | 126.89808 | 38965 ft | 531 kts | 48° |
| 2026-04-14 13:33 | 25.49664 | 126.96052 | 38964 ft | 531 kts | 48° |
| 2026-04-14 13:34 | 25.56826 | 127.05477 | 38966 ft | 533 kts | 48° |
| 2026-04-14 13:35 | 25.61623 | 127.11758 | 38967 ft | 533 kts | 47° |
| 2026-04-14 13:35 | 25.66514 | 127.17862 | 38961 ft | 532 kts | 46° |
| 2026-04-14 13:36 | 25.71501 | 127.24017 | 38965 ft | 532 kts | 46° |
| 2026-04-14 13:36 | 25.76385 | 127.30098 | 38967 ft | 533 kts | 46° |
| 2026-04-14 13:37 | 25.81128 | 127.36039 | 38968 ft | 533 kts | 46° |
| 2026-04-14 13:37 | 25.86052 | 127.42220 | 38966 ft | 533 kts | 46° |
| 2026-04-14 13:38 | 25.90973 | 127.48404 | 38958 ft | 533 kts | 46° |
| 2026-04-14 13:38 | 25.95849 | 127.54536 | 38955 ft | 533 kts | 46° |
| 2026-04-14 13:39 | 26.00768 | 127.60731 | 38947 ft | 534 kts | 46° |
| 2026-04-14 13:39 | 26.05693 | 127.66942 | 38945 ft | 535 kts | 46° |
| 2026-04-14 13:40 | 26.10619 | 127.73166 | 38944 ft | 535 kts | 46° |
| 2026-04-14 13:40 | 26.15561 | 127.79367 | 38963 ft | 534 kts | 44° |
| 2026-04-14 13:41 | 26.21034 | 127.84865 | 38967 ft | 530 kts | 36° |
| 2026-04-14 13:41 | 26.26751 | 127.90092 | 38965 ft | 531 kts | 36° |
| 2026-04-14 13:42 | 26.32452 | 127.95352 | 38958 ft | 532 kts | 36° |
| 2026-04-14 13:42 | 26.38132 | 128.00655 | 38960 ft | 533 kts | 37° |
| 2026-04-14 13:43 | 26.43802 | 128.05974 | 38944 ft | 533 kts | 37° |
| 2026-04-14 13:43 | 26.49493 | 128.11319 | 38956 ft | 533 kts | 36° |
| 2026-04-14 13:44 | 26.55170 | 128.16652 | 38969 ft | 533 kts | 36° |
| 2026-04-14 13:44 | 26.60856 | 128.22000 | 38962 ft | 534 kts | 36° |
| 2026-04-14 13:45 | 26.66514 | 128.27329 | 38963 ft | 534 kts | 36° |
| 2026-04-14 13:45 | 26.72185 | 128.32677 | 38954 ft | 534 kts | 36° |
| 2026-04-14 13:46 | 26.77881 | 128.38056 | 38949 ft | 534 kts | 36° |
| 2026-04-14 13:46 | 26.83536 | 128.43404 | 38946 ft | 534 kts | 36° |
| 2026-04-14 13:47 | 26.89205 | 128.48773 | 38947 ft | 534 kts | 36° |
| 2026-04-14 13:47 | 26.94882 | 128.54156 | 38947 ft | 535 kts | 36° |
| 2026-04-14 13:48 | 27.00567 | 128.59554 | 38950 ft | 536 kts | 36° |
| 2026-04-14 13:48 | 27.05312 | 128.64066 | 38948 ft | 537 kts | 36° |
| 2026-04-14 13:49 | 27.11014 | 128.69495 | 38945 ft | 537 kts | 36° |
| 2026-04-14 13:49 | 27.16696 | 128.74912 | 38943 ft | 535 kts | 36° |
| 2026-04-14 13:50 | 27.22386 | 128.80344 | 38949 ft | 536 kts | 36° |
| 2026-04-14 13:50 | 27.28066 | 128.85773 | 38948 ft | 537 kts | 36° |
| 2026-04-14 13:51 | 27.33765 | 128.91229 | 38946 ft | 537 kts | 36° |
| 2026-04-14 13:51 | 27.39424 | 128.96654 | 38945 ft | 538 kts | 36° |
| 2026-04-14 13:52 | 27.45118 | 129.02121 | 38949 ft | 538 kts | 36° |
| 2026-04-14 13:52 | 27.50814 | 129.07600 | 38948 ft | 537 kts | 36° |
| 2026-04-14 13:53 | 27.56100 | 129.13626 | 38951 ft | 543 kts | 47° |
| 2026-04-14 13:53 | 27.60870 | 129.20218 | 38955 ft | 544 kts | 47° |
| 2026-04-14 13:54 | 27.65652 | 129.26839 | 38958 ft | 544 kts | 47° |
| 2026-04-14 13:54 | 27.70483 | 129.33459 | 38948 ft | 544 kts | 47° |
| 2026-04-14 13:55 | 27.75279 | 129.40002 | 38944 ft | 544 kts | 46° |
| 2026-04-14 13:55 | 27.80149 | 129.46652 | 38943 ft | 545 kts | 47° |
| 2026-04-14 13:56 | 27.84951 | 129.53224 | 38953 ft | 544 kts | 47° |
| 2026-04-14 13:56 | 27.89768 | 129.59831 | 38938 ft | 544 kts | 47° |
| 2026-04-14 13:57 | 27.94573 | 129.66432 | 38940 ft | 545 kts | 47° |
| 2026-04-14 13:57 | 27.99370 | 129.73032 | 38944 ft | 545 kts | 47° |
| 2026-04-14 13:58 | 28.04177 | 129.79655 | 38937 ft | 544 kts | 47° |
| 2026-04-14 13:58 | 28.08998 | 129.86309 | 38929 ft | 544 kts | 47° |
| 2026-04-14 13:59 | 28.13801 | 129.92947 | 38924 ft | 545 kts | 47° |
| 2026-04-14 13:59 | 28.18630 | 129.99633 | 38921 ft | 546 kts | 47° |
| 2026-04-14 14:00 | 28.23433 | 130.06293 | 38921 ft | 545 kts | 47° |
| 2026-04-14 14:00 | 28.28197 | 130.12909 | 38923 ft | 546 kts | 47° |
| 2026-04-14 14:01 | 28.33021 | 130.19619 | 38930 ft | 546 kts | 47° |
| 2026-04-14 14:01 | 28.37833 | 130.26323 | 38936 ft | 546 kts | 47° |
| 2026-04-14 14:02 | 28.42619 | 130.33001 | 38938 ft | 546 kts | 47° |
| 2026-04-14 14:02 | 28.47408 | 130.39694 | 38940 ft | 546 kts | 47° |
| 2026-04-14 14:03 | 28.52213 | 130.46419 | 38936 ft | 547 kts | 47° |
| 2026-04-14 14:03 | 28.57022 | 130.53162 | 38930 ft | 547 kts | 47° |
| 2026-04-14 14:04 | 28.61808 | 130.59884 | 38932 ft | 547 kts | 47° |
| 2026-04-14 14:04 | 28.66575 | 130.66589 | 38932 ft | 547 kts | 47° |
| 2026-04-14 14:05 | 28.71388 | 130.73368 | 38930 ft | 548 kts | 47° |
| 2026-04-14 14:05 | 28.76151 | 130.80089 | 38933 ft | 548 kts | 47° |
| 2026-04-14 14:06 | 28.80945 | 130.86866 | 38936 ft | 549 kts | 47° |
| 2026-04-14 14:06 | 28.85750 | 130.93668 | 38928 ft | 549 kts | 47° |
| 2026-04-14 14:07 | 28.90515 | 131.00427 | 38924 ft | 548 kts | 47° |
| 2026-04-14 14:07 | 28.95293 | 131.07213 | 38927 ft | 547 kts | 47° |
| 2026-04-14 14:08 | 29.00075 | 131.14015 | 38927 ft | 548 kts | 47° |
| 2026-04-14 14:08 | 29.04849 | 131.20817 | 38926 ft | 548 kts | 47° |
| 2026-04-14 14:09 | 29.09598 | 131.27595 | 38923 ft | 549 kts | 47° |
| 2026-04-14 14:09 | 29.14367 | 131.34415 | 38920 ft | 548 kts | 47° |
| 2026-04-14 14:10 | 29.19143 | 131.41255 | 38921 ft | 548 kts | 47° |
| 2026-04-14 14:10 | 29.23897 | 131.48073 | 38921 ft | 549 kts | 47° |
| 2026-04-14 14:11 | 29.28661 | 131.54919 | 38917 ft | 549 kts | 47° |
| 2026-04-14 14:11 | 29.33395 | 131.61732 | 38922 ft | 549 kts | 47° |
| 2026-04-14 14:12 | 29.38150 | 131.68586 | 38919 ft | 550 kts | 47° |
| 2026-04-14 14:12 | 29.42918 | 131.75471 | 38920 ft | 551 kts | 47° |
| 2026-04-14 14:13 | 29.47678 | 131.82357 | 38916 ft | 551 kts | 47° |
| 2026-04-14 14:13 | 29.52440 | 131.89257 | 38916 ft | 551 kts | 47° |
| 2026-04-14 14:14 | 29.57203 | 131.96171 | 38914 ft | 550 kts | 47° |
| 2026-04-14 14:14 | 29.61954 | 132.03080 | 38918 ft | 550 kts | 47° |
| 2026-04-14 14:15 | 29.66712 | 132.09991 | 38916 ft | 551 kts | 46° |
| 2026-04-14 14:15 | 29.71540 | 132.16778 | 38918 ft | 551 kts | 46° |
| 2026-04-14 14:16 | 29.76439 | 132.23586 | 38916 ft | 551 kts | 46° |
| 2026-04-14 14:16 | 29.81321 | 132.30412 | 38913 ft | 552 kts | 46° |
| 2026-04-14 14:17 | 29.88629 | 132.40700 | 38908 ft | 553 kts | 46° |
| 2026-04-14 14:17 | 29.93493 | 132.47568 | 38905 ft | 552 kts | 46° |
| 2026-04-14 14:18 | 29.98355 | 132.54443 | 38927 ft | 552 kts | 46° |
| 2026-04-14 14:18 | 30.03212 | 132.61317 | 38915 ft | 553 kts | 46° |
| 2026-04-14 14:19 | 30.08057 | 132.68188 | 38922 ft | 553 kts | 46° |
| 2026-04-14 14:19 | 30.12914 | 132.75089 | 38924 ft | 554 kts | 46° |
| 2026-04-14 14:20 | 30.17782 | 132.82016 | 38926 ft | 555 kts | 46° |
| 2026-04-14 14:20 | 30.22655 | 132.88963 | 38931 ft | 556 kts | 46° |
| 2026-04-14 14:21 | 30.27526 | 132.95920 | 38928 ft | 556 kts | 46° |
| 2026-04-14 14:21 | 30.32387 | 133.02875 | 38923 ft | 555 kts | 46° |
| 2026-04-14 14:22 | 30.37264 | 133.09864 | 38930 ft | 555 kts | 46° |
| 2026-04-14 14:22 | 30.42118 | 133.16832 | 38934 ft | 556 kts | 46° |
| 2026-04-14 14:23 | 30.46942 | 133.23769 | 38935 ft | 557 kts | 46° |
| 2026-04-14 14:23 | 30.51812 | 133.30787 | 38936 ft | 557 kts | 46° |
| 2026-04-14 14:24 | 30.56674 | 133.37805 | 38934 ft | 556 kts | 46° |
| 2026-04-14 14:24 | 30.60702 | 133.43628 | 38936 ft | 556 kts | 46° |
| 2026-04-14 14:25 | 30.65551 | 133.50649 | 38939 ft | 556 kts | 46° |
| 2026-04-14 14:25 | 30.70403 | 133.57687 | 38942 ft | 557 kts | 46° |
| 2026-04-14 14:26 | 30.75240 | 133.64717 | 38946 ft | 558 kts | 46° |
| 2026-04-14 14:26 | 30.80077 | 133.71759 | 38929 ft | 559 kts | 46° |
| 2026-04-14 14:27 | 30.84918 | 133.78818 | 38941 ft | 557 kts | 46° |
| 2026-04-14 14:27 | 30.89755 | 133.85883 | 38944 ft | 557 kts | 46° |
| 2026-04-14 14:28 | 30.94560 | 133.92914 | 38941 ft | 557 kts | 46° |
| 2026-04-14 14:28 | 30.99393 | 133.99999 | 38947 ft | 558 kts | 46° |
| 2026-04-14 14:29 | 31.04228 | 134.07101 | 38948 ft | 558 kts | 46° |
| 2026-04-14 14:29 | 31.09050 | 134.14198 | 38945 ft | 557 kts | 46° |
| 2026-04-14 14:30 | 31.13841 | 134.21261 | 38953 ft | 558 kts | 46° |
| 2026-04-14 14:30 | 31.18679 | 134.28406 | 38948 ft | 559 kts | 46° |
| 2026-04-14 14:31 | 31.23489 | 134.35523 | 38956 ft | 559 kts | 46° |
| 2026-04-14 14:31 | 31.28310 | 134.42669 | 38955 ft | 559 kts | 46° |
| 2026-04-14 14:32 | 31.33134 | 134.49833 | 38955 ft | 560 kts | 46° |
| 2026-04-14 14:32 | 31.37911 | 134.56942 | 38955 ft | 559 kts | 46° |
| 2026-04-14 14:33 | 31.42714 | 134.64102 | 38958 ft | 559 kts | 46° |
| 2026-04-14 14:33 | 31.47524 | 134.71285 | 38958 ft | 559 kts | 46° |
| 2026-04-14 14:34 | 31.54696 | 134.82021 | 38961 ft | 560 kts | 46° |
| 2026-04-14 14:35 | 31.59515 | 134.89253 | 38964 ft | 560 kts | 46° |
| 2026-04-14 14:35 | 31.64298 | 134.96443 | 38960 ft | 560 kts | 46° |
| 2026-04-14 14:36 | 31.69236 | 135.03500 | 38956 ft | 550 kts | 35° |
| 2026-04-14 14:36 | 31.72211 | 135.06183 | 38967 ft | 534 kts | 22° |
| 2026-04-14 14:36 | 31.75493 | 135.08146 | 38974 ft | 522 kts | 12° |
| 2026-04-14 14:36 | 31.78909 | 135.09418 | 38968 ft | 509 kts | 360° |
| 2026-04-14 14:37 | 31.82345 | 135.10081 | 38978 ft | 507 kts | 358° |
| 2026-04-14 14:37 | 31.89358 | 135.11484 | 38976 ft | 512 kts | 359° |
| 2026-04-14 14:38 | 31.96330 | 135.13022 | 38961 ft | 509 kts | 360° |
| 2026-04-14 14:38 | 32.03274 | 135.14569 | 38970 ft | 507 kts | 359° |
| 2026-04-14 14:39 | 32.10229 | 135.16104 | 38975 ft | 508 kts | 359° |
| 2026-04-14 14:39 | 32.17196 | 135.17640 | 38970 ft | 509 kts | 359° |
| 2026-04-14 14:40 | 32.24130 | 135.19172 | 38973 ft | 509 kts | 359° |
| 2026-04-14 14:40 | 32.31098 | 135.20715 | 38971 ft | 508 kts | 359° |
| 2026-04-14 14:41 | 32.38040 | 135.22254 | 38978 ft | 508 kts | 359° |
| 2026-04-14 14:41 | 32.44995 | 135.23797 | 38985 ft | 508 kts | 359° |
| 2026-04-14 14:42 | 32.51932 | 135.25340 | 38983 ft | 507 kts | 359° |
| 2026-04-14 14:42 | 32.58896 | 135.26882 | 38984 ft | 506 kts | 359° |
| 2026-04-14 14:43 | 32.65824 | 135.28413 | 38980 ft | 506 kts | 359° |
| 2026-04-14 14:43 | 32.72765 | 135.29951 | 38983 ft | 506 kts | 359° |
| 2026-04-14 14:44 | 32.79700 | 135.31491 | 38983 ft | 506 kts | 359° |
| 2026-04-14 14:44 | 32.86575 | 135.33020 | 38985 ft | 506 kts | 359° |
| 2026-04-14 14:45 | 32.93496 | 135.34563 | 38985 ft | 505 kts | 359° |
| 2026-04-14 14:45 | 33.00419 | 135.36108 | 38994 ft | 505 kts | 358° |
| 2026-04-14 14:46 | 33.07316 | 135.37649 | 38992 ft | 505 kts | 358° |
| 2026-04-14 14:46 | 33.14233 | 135.39197 | 38996 ft | 505 kts | 358° |
| 2026-04-14 14:47 | 33.21153 | 135.40749 | 38994 ft | 504 kts | 358° |
| 2026-04-14 14:47 | 33.28065 | 135.42302 | 38997 ft | 504 kts | 358° |
| 2026-04-14 14:47 | 33.31479 | 135.43374 | 38977 ft | 523 kts | 11° |
| 2026-04-14 14:48 | 33.34713 | 135.45623 | 38996 ft | 553 kts | 30° |
| 2026-04-14 14:48 | 33.37404 | 135.49072 | 38995 ft | 577 kts | 50° |
| 2026-04-14 14:48 | 33.39230 | 135.53395 | 38990 ft | 589 kts | 69° |
| 2026-04-14 14:49 | 33.41001 | 135.62936 | 38986 ft | 587 kts | 75° |
| 2026-04-14 14:49 | 33.43154 | 135.72414 | 38981 ft | 582 kts | 64° |
| 2026-04-14 14:49 | 33.44889 | 135.76732 | 38994 ft | 572 kts | 52° |
| 2026-04-14 14:50 | 33.47209 | 135.80713 | 38999 ft | 565 kts | 43° |
| 2026-04-14 14:50 | 33.52825 | 135.87080 | 39014 ft | 549 kts | 26° |
| 2026-04-14 14:51 | 33.59028 | 135.92537 | 38997 ft | 552 kts | 26° |
| 2026-04-14 14:51 | 33.65117 | 135.98057 | 38998 ft | 549 kts | 27° |
| 2026-04-14 14:52 | 33.71171 | 136.03652 | 39003 ft | 548 kts | 27° |
| 2026-04-14 14:52 | 33.77264 | 136.09290 | 39011 ft | 549 kts | 27° |
| 2026-04-14 14:53 | 33.83210 | 136.14791 | 39018 ft | 551 kts | 27° |
| 2026-04-14 14:53 | 33.89310 | 136.20456 | 39006 ft | 551 kts | 27° |
| 2026-04-14 14:54 | 33.95365 | 136.26098 | 39011 ft | 551 kts | 27° |
| 2026-04-14 14:54 | 34.00428 | 136.30823 | 39016 ft | 551 kts | 27° |
| 2026-04-14 14:55 | 34.06514 | 136.36510 | 39015 ft | 551 kts | 27° |
| 2026-04-14 14:55 | 34.12585 | 136.42191 | 39011 ft | 551 kts | 27° |
| 2026-04-14 14:56 | 34.21643 | 136.50671 | 39016 ft | 552 kts | 27° |
| 2026-04-14 14:56 | 34.27723 | 136.56380 | 39024 ft | 553 kts | 27° |
| 2026-04-14 14:57 | 34.33823 | 136.62077 | 39021 ft | 553 kts | 26° |
| 2026-04-14 14:57 | 34.40006 | 136.67723 | 39030 ft | 552 kts | 26° |
| 2026-04-14 14:58 | 34.46118 | 136.73305 | 39027 ft | 552 kts | 26° |
| 2026-04-14 14:58 | 34.52255 | 136.78943 | 39012 ft | 554 kts | 26° |
| 2026-04-14 14:59 | 34.58411 | 136.84623 | 39020 ft | 554 kts | 26° |
| 2026-04-14 14:59 | 34.64552 | 136.90296 | 39023 ft | 554 kts | 26° |
| 2026-04-14 15:00 | 34.67429 | 136.93422 | 39003 ft | 572 kts | 40° |
| 2026-04-14 15:00 | 34.69711 | 136.97549 | 39024 ft | 593 kts | 58° |
| 2026-04-14 15:00 | 34.71109 | 137.02258 | 39011 ft | 605 kts | 76° |
| 2026-04-14 15:00 | 34.71606 | 137.07420 | 38714 ft | 615 kts | 86° |
| 2026-04-14 15:01 | 34.71809 | 137.12622 | 37842 ft | 626 kts | 87° |
| 2026-04-14 15:01 | 34.71982 | 137.17946 | 37242 ft | 622 kts | 87° |
| 2026-04-14 15:01 | 34.72188 | 137.23159 | 36849 ft | 610 kts | 86° |
| 2026-04-14 15:01 | 34.72445 | 137.28246 | 36516 ft | 598 kts | 85° |
| 2026-04-14 15:02 | 34.72739 | 137.33260 | 36188 ft | 587 kts | 84° |
| 2026-04-14 15:02 | 34.73046 | 137.38186 | 35769 ft | 579 kts | 84° |
| 2026-04-14 15:02 | 34.73348 | 137.43052 | 35312 ft | 573 kts | 84° |
| 2026-04-14 15:02 | 34.73632 | 137.47743 | 34788 ft | 568 kts | 84° |
| 2026-04-14 15:03 | 34.73911 | 137.52503 | 34277 ft | 562 kts | 84° |
| 2026-04-14 15:03 | 34.74182 | 137.57219 | 33707 ft | 556 kts | 84° |
| 2026-04-14 15:03 | 34.74372 | 137.61926 | 32908 ft | 555 kts | 90° |
| 2026-04-14 15:03 | 34.73932 | 137.66577 | 31996 ft | 555 kts | 104° |
| 2026-04-14 15:04 | 34.72769 | 137.70963 | 31197 ft | 549 kts | 116° |
| 2026-04-14 15:04 | 34.71012 | 137.75057 | 30417 ft | 539 kts | 128° |
| 2026-04-14 15:04 | 34.68809 | 137.78697 | 29587 ft | 532 kts | 131° |
| 2026-04-14 15:04 | 34.66594 | 137.82299 | 28714 ft | 529 kts | 130° |
| 2026-04-14 15:05 | 34.64441 | 137.85925 | 27965 ft | 524 kts | 129° |
| 2026-04-14 15:05 | 34.62366 | 137.89499 | 27347 ft | 516 kts | 129° |
| 2026-04-14 15:05 | 34.60270 | 137.93129 | 26566 ft | 513 kts | 129° |
| 2026-04-14 15:05 | 34.58248 | 137.96621 | 25794 ft | 511 kts | 129° |
| 2026-04-14 15:06 | 34.56209 | 138.00128 | 25072 ft | 508 kts | 129° |
| 2026-04-14 15:06 | 34.54127 | 138.03664 | 24415 ft | 503 kts | 130° |
| 2026-04-14 15:06 | 34.51985 | 138.06877 | 23798 ft | 496 kts | 134° |
| 2026-04-14 15:06 | 34.49745 | 138.10071 | 23124 ft | 492 kts | 134° |
| 2026-04-14 15:07 | 34.47550 | 138.13219 | 22531 ft | 485 kts | 134° |
| 2026-04-14 15:07 | 34.45392 | 138.16331 | 21989 ft | 478 kts | 134° |
| 2026-04-14 15:07 | 34.43264 | 138.19413 | 21450 ft | 471 kts | 134° |
| 2026-04-14 15:07 | 34.41172 | 138.22444 | 20885 ft | 465 kts | 134° |
| 2026-04-14 15:08 | 34.39105 | 138.25436 | 20329 ft | 460 kts | 133° |
| 2026-04-14 15:08 | 34.37057 | 138.28397 | 19792 ft | 455 kts | 133° |
| 2026-04-14 15:08 | 34.35081 | 138.31327 | 19128 ft | 435 kts | 132° |
| 2026-04-14 15:08 | 34.33228 | 138.34132 | 17854 ft | 423 kts | 130° |
| 2026-04-14 15:09 | 34.31740 | 138.37169 | 16385 ft | 417 kts | 111° |
| 2026-04-14 15:09 | 34.31257 | 138.40584 | 15007 ft | 408 kts | 89° |
| 2026-04-14 15:09 | 34.31701 | 138.43950 | 13750 ft | 411 kts | 72° |
| 2026-04-14 15:09 | 34.32839 | 138.47106 | 13064 ft | 408 kts | 61° |
| 2026-04-14 15:10 | 34.34370 | 138.49806 | 12611 ft | 399 kts | 47° |
| 2026-04-14 15:10 | 34.36330 | 138.51874 | 12346 ft | 385 kts | 36° |
| 2026-04-14 15:10 | 34.38420 | 138.53777 | 12192 ft | 356 kts | 37° |
| 2026-04-14 15:10 | 34.40304 | 138.55558 | 11909 ft | 323 kts | 38° |
| 2026-04-14 15:11 | 34.41973 | 138.57171 | 11474 ft | 302 kts | 39° |
| 2026-04-14 15:11 | 34.43581 | 138.58742 | 10857 ft | 291 kts | 39° |
| 2026-04-14 15:11 | 34.45175 | 138.60307 | 10256 ft | 293 kts | 40° |
| 2026-04-14 15:11 | 34.46744 | 138.61855 | 9924 ft | 290 kts | 40° |
| 2026-04-14 15:12 | 34.48299 | 138.63392 | 9600 ft | 285 kts | 40° |
| 2026-04-14 15:12 | 34.49827 | 138.64905 | 9256 ft | 281 kts | 40° |
| 2026-04-14 15:12 | 34.51331 | 138.66395 | 8893 ft | 279 kts | 41° |
| 2026-04-14 15:12 | 34.52831 | 138.67881 | 8514 ft | 277 kts | 41° |
| 2026-04-14 15:13 | 34.54318 | 138.69356 | 8131 ft | 275 kts | 41° |
| 2026-04-14 15:13 | 34.55795 | 138.70821 | 7752 ft | 273 kts | 41° |
| 2026-04-14 15:13 | 34.57314 | 138.72157 | 7311 ft | 268 kts | 27° |
| 2026-04-14 15:13 | 34.59143 | 138.72555 | 6726 ft | 274 kts | 352° |
| 2026-04-14 15:14 | 34.60889 | 138.71732 | 6437 ft | 270 kts | 324° |
| 2026-04-14 15:14 | 34.62188 | 138.70105 | 5981 ft | 270 kts | 302° |
| 2026-04-14 15:14 | 34.62987 | 138.68048 | 5523 ft | 268 kts | 291° |
| 2026-04-14 15:14 | 34.63683 | 138.65971 | 5086 ft | 268 kts | 292° |
| 2026-04-14 15:15 | 34.64452 | 138.63924 | 4742 ft | 265 kts | 296° |
| 2026-04-14 15:15 | 34.65229 | 138.61920 | 4626 ft | 256 kts | 294° |
| 2026-04-14 15:15 | 34.65925 | 138.59965 | 4616 ft | 251 kts | 292° |
| 2026-04-14 15:15 | 34.66596 | 138.57991 | 4617 ft | 252 kts | 292° |
| 2026-04-14 15:16 | 34.67259 | 138.56012 | 4624 ft | 256 kts | 292° |
| 2026-04-14 15:16 | 34.67935 | 138.53986 | 4627 ft | 257 kts | 292° |
| 2026-04-14 15:16 | 34.68610 | 138.51956 | 4625 ft | 256 kts | 292° |
| 2026-04-14 15:16 | 34.69284 | 138.49934 | 4453 ft | 261 kts | 292° |
| 2026-04-14 15:17 | 34.69963 | 138.47895 | 4253 ft | 256 kts | 292° |
| 2026-04-14 15:17 | 34.70620 | 138.45924 | 4115 ft | 247 kts | 292° |
| 2026-04-14 15:17 | 34.71257 | 138.44010 | 4008 ft | 244 kts | 292° |
| 2026-04-14 15:17 | 34.71898 | 138.42085 | 3913 ft | 242 kts | 292° |
| 2026-04-14 15:18 | 34.72308 | 138.40854 | 3833 ft | 234 kts | 292° |
| 2026-04-14 15:18 | 34.72522 | 138.40213 | 3755 ft | 232 kts | 292° |
| 2026-04-14 15:18 | 34.72928 | 138.38992 | 3589 ft | 228 kts | 292° |
| 2026-04-14 15:18 | 34.73408 | 138.37549 | 3443 ft | 217 kts | 292° |
| 2026-04-14 15:19 | 34.73960 | 138.35891 | 3162 ft | 208 kts | 292° |
| 2026-04-14 15:19 | 34.74486 | 138.34310 | 2890 ft | 195 kts | 292° |
| 2026-04-14 15:19 | 34.74988 | 138.32804 | 2653 ft | 189 kts | 293° |
| 2026-04-14 15:19 | 34.75476 | 138.31335 | 2429 ft | 188 kts | 293° |
| 2026-04-14 15:20 | 34.75965 | 138.29866 | 2182 ft | 187 kts | 293° |
| 2026-04-14 15:20 | 34.76453 | 138.28402 | 1907 ft | 186 kts | 294° |
| 2026-04-14 15:20 | 34.76944 | 138.26924 | 1660 ft | 183 kts | 294° |
| 2026-04-14 15:20 | 34.77400 | 138.25551 | 1392 ft | 164 kts | 294° |
| 2026-04-14 15:21 | 34.77815 | 138.24304 | 1181 ft | 151 kts | 294° |
| 2026-04-14 15:21 | 34.78214 | 138.23107 | 1005 ft | 149 kts | 293° |
| 2026-04-14 15:21 | 34.78607 | 138.21892 | 723 ft | 150 kts | 294° |
| 2026-04-14 15:21 | 34.79013 | 138.20707 | 467 ft | 148 kts | 295° |
| 2026-04-14 15:22 | 34.79395 | 138.19570 | 421 ft | 135 kts | 293° |
| 2026-04-14 15:22 | 34.79634 | 138.18841 | 431 ft | 51 kts | 290° |
| 2026-04-14 15:22 | 34.79747 | 138.18484 | 449 ft | 41 kts | 294° |
| 2026-04-14 15:22 | 34.79822 | 138.18247 | 454 ft | 22 kts | 272° |
| 2026-04-14 15:23 | 34.79763 | 138.18152 | 455 ft | 14 kts | 206° |
| 2026-04-14 15:23 | 34.79684 | 138.18177 | 453 ft | 7 kts | 122° |
| 2026-04-14 15:23 | 34.79681 | 138.18182 | 453 ft | 2 kts | 122° |
| 2026-04-14 15:23 | 34.79672 | 138.18200 | 453 ft | 3 kts | 117° |
| 2026-04-14 15:24 | 34.79662 | 138.18226 | 452 ft | 7 kts | 114° |
| 2026-04-14 15:24 | 34.79639 | 138.18293 | 450 ft | 10 kts | 113° |
| 2026-04-14 15:24 | 34.79591 | 138.18323 | 449 ft | 6 kts | 223° |
| 2026-04-14 15:24 | 34.79606 | 138.18297 | 449 ft | 5 kts | 348° |
| 2026-04-14 15:25 | 34.79634 | 138.18278 | 451 ft | 5 kts | 310° |
| 2026-04-14 15:25 | 34.79659 | 138.18221 | 452 ft | 9 kts | 295° |
| 2026-04-14 15:25 | 34.79671 | 138.18147 | 453 ft | 9 kts | 244° |
| 2026-04-14 15:25 | 34.79618 | 138.18099 | 452 ft | 9 kts | 235° |
| 2026-04-14 15:26 | 34.79635 | 138.18022 | 453 ft | 10 kts | 296° |
| 2026-04-14 15:26 | 34.79679 | 138.17950 | 453 ft | 11 kts | 311° |
| 2026-04-14 15:26 | 34.79694 | 138.17882 | 453 ft | 6 kts | 256° |
| 2026-04-14 15:26 | 34.79657 | 138.17848 | 453 ft | 7 kts | 202° |
| 2026-04-14 15:27 | 34.79647 | 138.17844 | 453 ft | 0 kts | 200° |